sensor_id;sensor_type;location;lat;lon;timestamp;P1;durP1;ratioP1;P2;durP2;ratioP2
20449;SDS011;10384;51.940;8.432;2023-06-19T00:00:07;6.70;;;4.80;;
20449;SDS011;10384;51.940;8.432;2023-06-19T00:02:38;11.80;;;5.00;;
20449;SDS011;10384;51.940;8.432;2023-06-19T00:05:04;8.33;;;5.17;;
20449;SDS011;10384;51.940;8.432;2023-06-19T00:07:30;8.63;;;4.83;;
20449;SDS011;10384;51.940;8.432;2023-06-19T00:09:56;7.30;;;5.20;;
20449;SDS011;10384;51.940;8.432;2023-06-19T00:12:22;8.23;;;5.10;;
20449;SDS011;10384;51.940;8.432;2023-06-19T00:14:48;8.23;;;4.93;;
20449;SDS011;10384;51.940;8.432;2023-06-19T00:17:14;7.23;;;4.90;;
20449;SDS011;10384;51.940;8.432;2023-06-19T00:19:43;9.43;;;4.40;;
20449;SDS011;10384;51.940;8.432;2023-06-19T00:22:09;8.13;;;4.83;;
20449;SDS011;10384;51.940;8.432;2023-06-19T00:24:35;7.07;;;4.53;;
20449;SDS011;10384;51.940;8.432;2023-06-19T00:27:01;7.43;;;4.50;;
20449;SDS011;10384;51.940;8.432;2023-06-19T00:29:28;8.73;;;4.90;;
20449;SDS011;10384;51.940;8.432;2023-06-19T00:31:54;9.97;;;5.57;;
20449;SDS011;10384;51.940;8.432;2023-06-19T00:34:20;7.60;;;4.57;;
20449;SDS011;10384;51.940;8.432;2023-06-19T00:36:49;8.13;;;4.73;;
20449;SDS011;10384;51.940;8.432;2023-06-19T00:39:15;6.83;;;4.67;;
20449;SDS011;10384;51.940;8.432;2023-06-19T00:41:41;10.17;;;5.03;;
20449;SDS011;10384;51.940;8.432;2023-06-19T00:44:08;7.90;;;4.93;;
20449;SDS011;10384;51.940;8.432;2023-06-19T00:46:37;7.60;;;4.63;;
20449;SDS011;10384;51.940;8.432;2023-06-19T00:49:06;8.13;;;5.37;;
20449;SDS011;10384;51.940;8.432;2023-06-19T00:51:32;7.90;;;5.10;;
20449;SDS011;10384;51.940;8.432;2023-06-19T00:53:58;7.93;;;5.13;;
20449;SDS011;10384;51.940;8.432;2023-06-19T00:56:24;7.10;;;4.77;;
20449;SDS011;10384;51.940;8.432;2023-06-19T00:58:50;8.13;;;5.23;;
20449;SDS011;10384;51.940;8.432;2023-06-19T01:01:17;6.67;;;4.67;;
20449;SDS011;10384;51.940;8.432;2023-06-19T01:03:44;7.07;;;4.70;;
20449;SDS011;10384;51.940;8.432;2023-06-19T01:06:10;7.17;;;4.63;;
20449;SDS011;10384;51.940;8.432;2023-06-19T01:11:10;10.73;;;5.00;;
20449;SDS011;10384;51.940;8.432;2023-06-19T01:16:04;8.00;;;5.00;;
20449;SDS011;10384;51.940;8.432;2023-06-19T01:18:32;8.07;;;5.10;;
20449;SDS011;10384;51.940;8.432;2023-06-19T01:23:36;7.93;;;5.13;;
20449;SDS011;10384;51.940;8.432;2023-06-19T01:26:02;8.77;;;4.97;;
20449;SDS011;10384;51.940;8.432;2023-06-19T01:28:28;6.13;;;4.37;;
20449;SDS011;10384;51.940;8.432;2023-06-19T01:30:54;6.40;;;4.70;;
20449;SDS011;10384;51.940;8.432;2023-06-19T01:33:28;7.93;;;5.00;;
20449;SDS011;10384;51.940;8.432;2023-06-19T01:35:56;7.13;;;4.90;;
20449;SDS011;10384;51.940;8.432;2023-06-19T01:38:23;10.27;;;5.07;;
20449;SDS011;10384;51.940;8.432;2023-06-19T01:40:52;7.83;;;5.20;;
20449;SDS011;10384;51.940;8.432;2023-06-19T01:43:18;8.80;;;4.80;;
20449;SDS011;10384;51.940;8.432;2023-06-19T01:45:44;7.27;;;4.53;;
20449;SDS011;10384;51.940;8.432;2023-06-19T01:48:10;8.07;;;5.33;;
20449;SDS011;10384;51.940;8.432;2023-06-19T01:50:36;9.33;;;5.50;;
20449;SDS011;10384;51.940;8.432;2023-06-19T01:53:02;7.17;;;4.70;;
20449;SDS011;10384;51.940;8.432;2023-06-19T01:55:28;7.50;;;4.83;;
20449;SDS011;10384;51.940;8.432;2023-06-19T01:57:54;8.07;;;4.80;;
20449;SDS011;10384;51.940;8.432;2023-06-19T02:00:21;7.73;;;5.00;;
20449;SDS011;10384;51.940;8.432;2023-06-19T02:02:47;9.03;;;5.43;;
20449;SDS011;10384;51.940;8.432;2023-06-19T02:05:13;8.97;;;5.33;;
20449;SDS011;10384;51.940;8.432;2023-06-19T02:07:40;8.67;;;4.80;;
20449;SDS011;10384;51.940;8.432;2023-06-19T02:10:06;7.87;;;5.03;;
20449;SDS011;10384;51.940;8.432;2023-06-19T02:12:33;8.50;;;4.97;;
20449;SDS011;10384;51.940;8.432;2023-06-19T02:14:59;7.93;;;5.00;;
20449;SDS011;10384;51.940;8.432;2023-06-19T02:17:25;7.40;;;4.50;;
20449;SDS011;10384;51.940;8.432;2023-06-19T02:19:51;8.27;;;5.27;;
20449;SDS011;10384;51.940;8.432;2023-06-19T02:22:17;9.67;;;5.60;;
20449;SDS011;10384;51.940;8.432;2023-06-19T02:24:43;9.30;;;5.40;;
20449;SDS011;10384;51.940;8.432;2023-06-19T02:27:10;8.90;;;5.50;;
20449;SDS011;10384;51.940;8.432;2023-06-19T02:29:36;8.10;;;5.40;;
20449;SDS011;10384;51.940;8.432;2023-06-19T02:32:02;8.27;;;5.13;;
20449;SDS011;10384;51.940;8.432;2023-06-19T02:34:28;9.13;;;5.33;;
20449;SDS011;10384;51.940;8.432;2023-06-19T02:36:54;8.30;;;5.20;;
20449;SDS011;10384;51.940;8.432;2023-06-19T02:39:20;8.07;;;5.00;;
20449;SDS011;10384;51.940;8.432;2023-06-19T02:41:48;7.97;;;5.07;;
20449;SDS011;10384;51.940;8.432;2023-06-19T02:44:14;7.83;;;5.20;;
20449;SDS011;10384;51.940;8.432;2023-06-19T02:46:40;7.60;;;4.87;;
20449;SDS011;10384;51.940;8.432;2023-06-19T02:49:06;9.03;;;5.33;;
20449;SDS011;10384;51.940;8.432;2023-06-19T02:51:32;8.47;;;4.87;;
20449;SDS011;10384;51.940;8.432;2023-06-19T02:53:58;7.80;;;5.03;;
20449;SDS011;10384;51.940;8.432;2023-06-19T02:56:24;8.10;;;5.00;;
20449;SDS011;10384;51.940;8.432;2023-06-19T02:58:50;8.03;;;5.80;;
20449;SDS011;10384;51.940;8.432;2023-06-19T03:01:17;9.03;;;5.00;;
20449;SDS011;10384;51.940;8.432;2023-06-19T03:03:43;8.93;;;5.00;;
20449;SDS011;10384;51.940;8.432;2023-06-19T03:06:11;8.70;;;5.60;;
20449;SDS011;10384;51.940;8.432;2023-06-19T03:08:38;9.00;;;5.13;;
20449;SDS011;10384;51.940;8.432;2023-06-19T03:11:04;9.43;;;4.73;;
20449;SDS011;10384;51.940;8.432;2023-06-19T03:13:35;9.33;;;5.40;;
20449;SDS011;10384;51.940;8.432;2023-06-19T03:16:01;9.57;;;5.33;;
20449;SDS011;10384;51.940;8.432;2023-06-19T03:18:27;9.13;;;5.57;;
20449;SDS011;10384;51.940;8.432;2023-06-19T03:20:53;8.87;;;5.30;;
20449;SDS011;10384;51.940;8.432;2023-06-19T03:23:19;10.10;;;5.50;;
20449;SDS011;10384;51.940;8.432;2023-06-19T03:25:45;8.30;;;5.27;;
20449;SDS011;10384;51.940;8.432;2023-06-19T03:28:11;9.13;;;5.53;;
20449;SDS011;10384;51.940;8.432;2023-06-19T03:30:37;10.30;;;6.33;;
20449;SDS011;10384;51.940;8.432;2023-06-19T03:33:03;9.17;;;5.40;;
20449;SDS011;10384;51.940;8.432;2023-06-19T03:35:29;8.27;;;5.07;;
20449;SDS011;10384;51.940;8.432;2023-06-19T03:37:54;10.63;;;5.90;;
20449;SDS011;10384;51.940;8.432;2023-06-19T03:40:20;10.50;;;5.83;;
20449;SDS011;10384;51.940;8.432;2023-06-19T03:42:46;9.80;;;5.80;;
20449;SDS011;10384;51.940;8.432;2023-06-19T03:45:12;9.07;;;5.77;;
20449;SDS011;10384;51.940;8.432;2023-06-19T03:47:38;9.33;;;5.53;;
20449;SDS011;10384;51.940;8.432;2023-06-19T03:50:04;9.67;;;5.90;;
20449;SDS011;10384;51.940;8.432;2023-06-19T03:52:34;10.87;;;6.33;;
20449;SDS011;10384;51.940;8.432;2023-06-19T03:55:00;9.27;;;5.50;;
20449;SDS011;10384;51.940;8.432;2023-06-19T03:57:26;9.03;;;5.43;;
20449;SDS011;10384;51.940;8.432;2023-06-19T03:59:52;9.23;;;5.83;;
20449;SDS011;10384;51.940;8.432;2023-06-19T04:02:19;8.87;;;5.20;;
20449;SDS011;10384;51.940;8.432;2023-06-19T04:04:44;9.17;;;5.83;;
20449;SDS011;10384;51.940;8.432;2023-06-19T04:07:10;8.43;;;5.20;;
20449;SDS011;10384;51.940;8.432;2023-06-19T04:09:36;9.40;;;4.90;;
20449;SDS011;10384;51.940;8.432;2023-06-19T04:12:02;9.53;;;5.43;;
20449;SDS011;10384;51.940;8.432;2023-06-19T04:14:28;7.67;;;5.07;;
20449;SDS011;10384;51.940;8.432;2023-06-19T04:16:54;8.73;;;4.87;;
20449;SDS011;10384;51.940;8.432;2023-06-19T04:19:20;8.83;;;5.13;;
20449;SDS011;10384;51.940;8.432;2023-06-19T04:21:46;8.57;;;5.27;;
20449;SDS011;10384;51.940;8.432;2023-06-19T04:24:12;8.93;;;5.40;;
20449;SDS011;10384;51.940;8.432;2023-06-19T04:26:38;9.53;;;5.27;;
20449;SDS011;10384;51.940;8.432;2023-06-19T04:29:04;10.70;;;7.03;;
20449;SDS011;10384;51.940;8.432;2023-06-19T04:31:31;9.50;;;5.67;;
20449;SDS011;10384;51.940;8.432;2023-06-19T04:33:57;10.13;;;6.00;;
20449;SDS011;10384;51.940;8.432;2023-06-19T04:36:23;9.93;;;5.47;;
20449;SDS011;10384;51.940;8.432;2023-06-19T04:38:49;8.87;;;5.50;;
20449;SDS011;10384;51.940;8.432;2023-06-19T04:41:16;8.60;;;5.50;;
20449;SDS011;10384;51.940;8.432;2023-06-19T04:43:42;7.07;;;5.17;;
20449;SDS011;10384;51.940;8.432;2023-06-19T04:46:08;8.90;;;5.50;;
20449;SDS011;10384;51.940;8.432;2023-06-19T04:48:34;9.97;;;5.87;;
20449;SDS011;10384;51.940;8.432;2023-06-19T04:51:02;9.13;;;6.00;;
20449;SDS011;10384;51.940;8.432;2023-06-19T04:53:28;11.00;;;5.80;;
20449;SDS011;10384;51.940;8.432;2023-06-19T04:55:54;9.23;;;5.60;;
20449;SDS011;10384;51.940;8.432;2023-06-19T04:58:20;8.30;;;5.83;;
20449;SDS011;10384;51.940;8.432;2023-06-19T05:00:46;9.13;;;5.53;;
20449;SDS011;10384;51.940;8.432;2023-06-19T05:03:16;8.40;;;5.47;;
20449;SDS011;10384;51.940;8.432;2023-06-19T05:05:43;10.00;;;5.83;;
20449;SDS011;10384;51.940;8.432;2023-06-19T05:08:09;8.53;;;5.53;;
20449;SDS011;10384;51.940;8.432;2023-06-19T05:10:35;7.53;;;5.07;;
20449;SDS011;10384;51.940;8.432;2023-06-19T05:13:01;9.70;;;5.47;;
20449;SDS011;10384;51.940;8.432;2023-06-19T05:15:27;8.60;;;5.20;;
20449;SDS011;10384;51.940;8.432;2023-06-19T05:17:54;9.07;;;5.93;;
20449;SDS011;10384;51.940;8.432;2023-06-19T05:20:20;10.63;;;5.90;;
20449;SDS011;10384;51.940;8.432;2023-06-19T05:22:46;7.63;;;5.57;;
20449;SDS011;10384;51.940;8.432;2023-06-19T05:25:12;7.40;;;5.33;;
20449;SDS011;10384;51.940;8.432;2023-06-19T05:27:38;8.57;;;5.43;;
20449;SDS011;10384;51.940;8.432;2023-06-19T05:30:04;7.37;;;4.87;;
20449;SDS011;10384;51.940;8.432;2023-06-19T05:32:30;9.07;;;4.87;;
20449;SDS011;10384;51.940;8.432;2023-06-19T05:34:56;7.77;;;4.47;;
20449;SDS011;10384;51.940;8.432;2023-06-19T05:37:22;6.87;;;4.50;;
20449;SDS011;10384;51.940;8.432;2023-06-19T05:39:48;6.73;;;4.50;;
20449;SDS011;10384;51.940;8.432;2023-06-19T05:42:14;8.07;;;4.03;;
20449;SDS011;10384;51.940;8.432;2023-06-19T05:44:40;6.70;;;4.60;;
20449;SDS011;10384;51.940;8.432;2023-06-19T05:47:06;8.17;;;4.60;;
20449;SDS011;10384;51.940;8.432;2023-06-19T05:49:32;7.00;;;4.00;;
20449;SDS011;10384;51.940;8.432;2023-06-19T05:51:58;8.17;;;4.20;;
20449;SDS011;10384;51.940;8.432;2023-06-19T05:54:25;6.37;;;4.20;;
20449;SDS011;10384;51.940;8.432;2023-06-19T05:56:51;11.57;;;3.80;;
20449;SDS011;10384;51.940;8.432;2023-06-19T05:59:17;10.67;;;4.40;;
20449;SDS011;10384;51.940;8.432;2023-06-19T06:01:43;8.43;;;3.90;;
20449;SDS011;10384;51.940;8.432;2023-06-19T06:04:09;7.23;;;3.57;;
20449;SDS011;10384;51.940;8.432;2023-06-19T06:06:35;8.83;;;3.90;;
20449;SDS011;10384;51.940;8.432;2023-06-19T06:09:01;4.90;;;3.20;;
20449;SDS011;10384;51.940;8.432;2023-06-19T06:11:27;6.63;;;4.10;;
20449;SDS011;10384;51.940;8.432;2023-06-19T06:13:53;6.97;;;3.43;;
20449;SDS011;10384;51.940;8.432;2023-06-19T06:16:19;7.10;;;3.53;;
20449;SDS011;10384;51.940;8.432;2023-06-19T06:18:45;6.57;;;3.17;;
20449;SDS011;10384;51.940;8.432;2023-06-19T06:21:11;3.77;;;2.80;;
20449;SDS011;10384;51.940;8.432;2023-06-19T06:23:38;7.67;;;3.13;;
20449;SDS011;10384;51.940;8.432;2023-06-19T06:26:04;6.27;;;3.20;;
20449;SDS011;10384;51.940;8.432;2023-06-19T06:28:30;8.03;;;3.43;;
20449;SDS011;10384;51.940;8.432;2023-06-19T06:30:56;6.23;;;2.60;;
20449;SDS011;10384;51.940;8.432;2023-06-19T06:33:22;7.50;;;3.07;;
20449;SDS011;10384;51.940;8.432;2023-06-19T06:35:49;5.13;;;2.60;;
20449;SDS011;10384;51.940;8.432;2023-06-19T06:38:16;3.83;;;2.30;;
20449;SDS011;10384;51.940;8.432;2023-06-19T06:40:42;3.83;;;2.23;;
20449;SDS011;10384;51.940;8.432;2023-06-19T06:43:08;3.57;;;2.43;;
20449;SDS011;10384;51.940;8.432;2023-06-19T06:45:34;4.23;;;2.63;;
20449;SDS011;10384;51.940;8.432;2023-06-19T06:48:02;3.67;;;2.50;;
20449;SDS011;10384;51.940;8.432;2023-06-19T06:50:28;3.97;;;2.47;;
20449;SDS011;10384;51.940;8.432;2023-06-19T06:52:57;8.87;;;2.63;;
20449;SDS011;10384;51.940;8.432;2023-06-19T06:55:23;6.10;;;2.50;;
20449;SDS011;10384;51.940;8.432;2023-06-19T06:57:49;4.43;;;2.60;;
20449;SDS011;10384;51.940;8.432;2023-06-19T07:00:15;5.57;;;2.80;;
20449;SDS011;10384;51.940;8.432;2023-06-19T07:02:43;5.03;;;2.63;;
20449;SDS011;10384;51.940;8.432;2023-06-19T07:05:09;6.90;;;2.70;;
20449;SDS011;10384;51.940;8.432;2023-06-19T07:07:36;3.80;;;2.20;;
20449;SDS011;10384;51.940;8.432;2023-06-19T07:10:02;2.63;;;2.23;;
20449;SDS011;10384;51.940;8.432;2023-06-19T07:12:28;5.60;;;2.40;;
20449;SDS011;10384;51.940;8.432;2023-06-19T07:14:54;3.20;;;2.10;;
20449;SDS011;10384;51.940;8.432;2023-06-19T07:17:20;3.37;;;2.20;;
20449;SDS011;10384;51.940;8.432;2023-06-19T07:19:46;6.67;;;1.83;;
20449;SDS011;10384;51.940;8.432;2023-06-19T07:22:13;6.27;;;1.83;;
20449;SDS011;10384;51.940;8.432;2023-06-19T07:24:42;3.93;;;1.90;;
20449;SDS011;10384;51.940;8.432;2023-06-19T07:27:08;2.60;;;1.70;;
20449;SDS011;10384;51.940;8.432;2023-06-19T07:29:34;4.13;;;2.07;;
20449;SDS011;10384;51.940;8.432;2023-06-19T07:32:00;3.87;;;1.70;;
20449;SDS011;10384;51.940;8.432;2023-06-19T07:34:28;3.07;;;1.70;;
20449;SDS011;10384;51.940;8.432;2023-06-19T07:36:53;5.40;;;1.87;;
20449;SDS011;10384;51.940;8.432;2023-06-19T07:39:20;3.87;;;1.87;;
20449;SDS011;10384;51.940;8.432;2023-06-19T07:41:46;2.17;;;1.80;;
20449;SDS011;10384;51.940;8.432;2023-06-19T07:44:12;2.20;;;1.70;;
20449;SDS011;10384;51.940;8.432;2023-06-19T07:46:38;3.87;;;1.60;;
20449;SDS011;10384;51.940;8.432;2023-06-19T07:49:04;3.13;;;1.70;;
20449;SDS011;10384;51.940;8.432;2023-06-19T07:51:30;4.53;;;1.60;;
20449;SDS011;10384;51.940;8.432;2023-06-19T07:53:56;4.50;;;1.70;;
20449;SDS011;10384;51.940;8.432;2023-06-19T07:56:22;2.50;;;1.70;;
20449;SDS011;10384;51.940;8.432;2023-06-19T07:58:48;3.07;;;1.80;;
20449;SDS011;10384;51.940;8.432;2023-06-19T08:01:14;5.53;;;1.93;;
20449;SDS011;10384;51.940;8.432;2023-06-19T08:03:41;3.20;;;2.17;;
20449;SDS011;10384;51.940;8.432;2023-06-19T08:06:07;2.60;;;1.80;;
20449;SDS011;10384;51.940;8.432;2023-06-19T08:08:33;3.17;;;1.60;;
20449;SDS011;10384;51.940;8.432;2023-06-19T08:10:59;3.87;;;1.87;;
20449;SDS011;10384;51.940;8.432;2023-06-19T08:13:25;2.60;;;1.97;;
20449;SDS011;10384;51.940;8.432;2023-06-19T08:15:51;4.87;;;2.63;;
20449;SDS011;10384;51.940;8.432;2023-06-19T08:18:17;3.10;;;1.97;;
20449;SDS011;10384;51.940;8.432;2023-06-19T08:20:43;2.63;;;2.17;;
20449;SDS011;10384;51.940;8.432;2023-06-19T08:23:09;2.40;;;1.97;;
20449;SDS011;10384;51.940;8.432;2023-06-19T08:25:35;2.27;;;2.00;;
20449;SDS011;10384;51.940;8.432;2023-06-19T08:28:01;3.00;;;2.20;;
20449;SDS011;10384;51.940;8.432;2023-06-19T08:30:27;3.50;;;2.67;;
20449;SDS011;10384;51.940;8.432;2023-06-19T08:32:53;3.10;;;2.50;;
20449;SDS011;10384;51.940;8.432;2023-06-19T08:35:19;3.73;;;2.17;;
20449;SDS011;10384;51.940;8.432;2023-06-19T08:37:45;3.80;;;2.50;;
20449;SDS011;10384;51.940;8.432;2023-06-19T08:40:11;3.97;;;3.17;;
20449;SDS011;10384;51.940;8.432;2023-06-19T08:42:37;3.73;;;2.90;;
20449;SDS011;10384;51.940;8.432;2023-06-19T08:45:05;4.60;;;3.03;;
20449;SDS011;10384;51.940;8.432;2023-06-19T08:47:31;5.07;;;3.63;;
20449;SDS011;10384;51.940;8.432;2023-06-19T08:49:58;7.03;;;3.37;;
20449;SDS011;10384;51.940;8.432;2023-06-19T08:52:24;3.63;;;3.27;;
20449;SDS011;10384;51.940;8.432;2023-06-19T08:54:50;4.03;;;3.63;;
20449;SDS011;10384;51.940;8.432;2023-06-19T08:57:17;4.50;;;4.03;;
20449;SDS011;10384;51.940;8.432;2023-06-19T08:59:49;5.70;;;4.40;;
20449;SDS011;10384;51.940;8.432;2023-06-19T09:02:15;7.27;;;4.13;;
20449;SDS011;10384;51.940;8.432;2023-06-19T09:04:41;6.67;;;4.40;;
20449;SDS011;10384;51.940;8.432;2023-06-19T09:07:07;6.77;;;4.40;;
20449;SDS011;10384;51.940;8.432;2023-06-19T09:09:34;6.07;;;4.97;;
20449;SDS011;10384;51.940;8.432;2023-06-19T09:14:38;5.70;;;4.70;;
20449;SDS011;10384;51.940;8.432;2023-06-19T09:17:05;5.00;;;4.43;;
20449;SDS011;10384;51.940;8.432;2023-06-19T09:19:34;5.47;;;4.50;;
20449;SDS011;10384;51.940;8.432;2023-06-19T09:22:04;6.17;;;4.43;;
20449;SDS011;10384;51.940;8.432;2023-06-19T09:24:34;7.13;;;4.97;;
20449;SDS011;10384;51.940;8.432;2023-06-19T09:27:14;6.03;;;4.23;;
20449;SDS011;10384;51.940;8.432;2023-06-19T09:29:43;5.67;;;4.20;;
20449;SDS011;10384;51.940;8.432;2023-06-19T09:34:41;6.83;;;4.13;;
20449;SDS011;10384;51.940;8.432;2023-06-19T09:37:07;8.90;;;4.40;;
20449;SDS011;10384;51.940;8.432;2023-06-19T09:39:35;6.43;;;4.63;;
20449;SDS011;10384;51.940;8.432;2023-06-19T09:42:02;5.80;;;4.40;;
20449;SDS011;10384;51.940;8.432;2023-06-19T09:44:31;5.43;;;4.50;;
20449;SDS011;10384;51.940;8.432;2023-06-19T09:46:57;6.80;;;3.77;;
20449;SDS011;10384;51.940;8.432;2023-06-19T09:49:25;6.40;;;4.27;;
20449;SDS011;10384;51.940;8.432;2023-06-19T09:51:53;7.73;;;4.57;;
20449;SDS011;10384;51.940;8.432;2023-06-19T09:54:20;5.77;;;4.00;;
20449;SDS011;10384;51.940;8.432;2023-06-19T09:56:46;4.43;;;3.83;;
20449;SDS011;10384;51.940;8.432;2023-06-19T09:59:16;8.00;;;4.17;;
20449;SDS011;10384;51.940;8.432;2023-06-19T10:01:43;4.80;;;3.80;;
20449;SDS011;10384;51.940;8.432;2023-06-19T10:04:10;6.80;;;4.03;;
20449;SDS011;10384;51.940;8.432;2023-06-19T10:06:44;6.50;;;4.00;;
20449;SDS011;10384;51.940;8.432;2023-06-19T10:09:10;4.20;;;3.10;;
20449;SDS011;10384;51.940;8.432;2023-06-19T10:14:12;7.63;;;3.40;;
20449;SDS011;10384;51.940;8.432;2023-06-19T10:16:39;5.07;;;3.27;;
20449;SDS011;10384;51.940;8.432;2023-06-19T10:19:15;6.00;;;3.50;;
20449;SDS011;10384;51.940;8.432;2023-06-19T10:21:44;6.00;;;3.70;;
20449;SDS011;10384;51.940;8.432;2023-06-19T10:24:14;5.37;;;3.50;;
20449;SDS011;10384;51.940;8.432;2023-06-19T10:26:40;3.93;;;3.50;;
20449;SDS011;10384;51.940;8.432;2023-06-19T10:29:13;4.07;;;3.50;;
20449;SDS011;10384;51.940;8.432;2023-06-19T10:31:39;5.93;;;3.47;;
20449;SDS011;10384;51.940;8.432;2023-06-19T10:34:05;4.57;;;3.37;;
20449;SDS011;10384;51.940;8.432;2023-06-19T10:36:31;5.00;;;3.70;;
20449;SDS011;10384;51.940;8.432;2023-06-19T10:38:58;4.63;;;3.50;;
20449;SDS011;10384;51.940;8.432;2023-06-19T10:41:25;5.27;;;4.00;;
20449;SDS011;10384;51.940;8.432;2023-06-19T10:46:23;4.03;;;3.43;;
20449;SDS011;10384;51.940;8.432;2023-06-19T10:48:50;10.10;;;4.10;;
20449;SDS011;10384;51.940;8.432;2023-06-19T10:51:19;4.90;;;3.70;;
20449;SDS011;10384;51.940;8.432;2023-06-19T10:53:45;4.30;;;3.80;;
20449;SDS011;10384;51.940;8.432;2023-06-19T10:56:11;7.13;;;3.90;;
20449;SDS011;10384;51.940;8.432;2023-06-19T10:58:37;4.73;;;3.40;;
20449;SDS011;10384;51.940;8.432;2023-06-19T11:01:03;4.90;;;3.40;;
20449;SDS011;10384;51.940;8.432;2023-06-19T11:03:29;4.57;;;2.80;;
20449;SDS011;10384;51.940;8.432;2023-06-19T11:05:57;4.60;;;2.70;;
20449;SDS011;10384;51.940;8.432;2023-06-19T11:08:23;5.60;;;3.33;;
20449;SDS011;10384;51.940;8.432;2023-06-19T11:10:50;3.80;;;3.23;;
20449;SDS011;10384;51.940;8.432;2023-06-19T11:13:19;3.90;;;3.50;;
20449;SDS011;10384;51.940;8.432;2023-06-19T11:15:46;7.20;;;3.53;;
20449;SDS011;10384;51.940;8.432;2023-06-19T11:18:15;6.30;;;2.90;;
20449;SDS011;10384;51.940;8.432;2023-06-19T11:20:48;5.43;;;2.60;;
20449;SDS011;10384;51.940;8.432;2023-06-19T11:23:15;3.07;;;2.20;;
20449;SDS011;10384;51.940;8.432;2023-06-19T11:25:42;3.30;;;2.50;;
20449;SDS011;10384;51.940;8.432;2023-06-19T11:28:14;3.73;;;2.90;;
20449;SDS011;10384;51.940;8.432;2023-06-19T11:30:42;3.30;;;2.53;;
20449;SDS011;10384;51.940;8.432;2023-06-19T11:33:18;3.63;;;2.87;;
20449;SDS011;10384;51.940;8.432;2023-06-19T11:35:49;3.30;;;2.27;;
20449;SDS011;10384;51.940;8.432;2023-06-19T11:40:44;4.30;;;2.50;;
20449;SDS011;10384;51.940;8.432;2023-06-19T11:43:11;2.80;;;2.40;;
20449;SDS011;10384;51.940;8.432;2023-06-19T11:45:49;3.37;;;2.50;;
20449;SDS011;10384;51.940;8.432;2023-06-19T11:48:23;2.80;;;2.50;;
20449;SDS011;10384;51.940;8.432;2023-06-19T11:50:50;2.80;;;2.60;;
20449;SDS011;10384;51.940;8.432;2023-06-19T11:53:16;2.53;;;2.33;;
20449;SDS011;10384;51.940;8.432;2023-06-19T11:55:42;4.07;;;2.70;;
20449;SDS011;10384;51.940;8.432;2023-06-19T11:58:09;2.80;;;2.50;;
20449;SDS011;10384;51.940;8.432;2023-06-19T12:00:38;5.97;;;2.80;;
20449;SDS011;10384;51.940;8.432;2023-06-19T12:03:04;4.10;;;3.17;;
20449;SDS011;10384;51.940;8.432;2023-06-19T12:05:30;4.07;;;3.07;;
20449;SDS011;10384;51.940;8.432;2023-06-19T12:07:56;3.87;;;2.90;;
20449;SDS011;10384;51.940;8.432;2023-06-19T12:10:23;5.07;;;3.00;;
20449;SDS011;10384;51.940;8.432;2023-06-19T12:12:49;3.13;;;2.83;;
20449;SDS011;10384;51.940;8.432;2023-06-19T12:15:14;4.57;;;3.00;;
20449;SDS011;10384;51.940;8.432;2023-06-19T12:17:40;4.00;;;2.87;;
20449;SDS011;10384;51.940;8.432;2023-06-19T12:20:07;3.47;;;2.70;;
20449;SDS011;10384;51.940;8.432;2023-06-19T12:22:34;3.23;;;2.67;;
20449;SDS011;10384;51.940;8.432;2023-06-19T12:25:00;3.50;;;2.80;;
20449;SDS011;10384;51.940;8.432;2023-06-19T12:27:26;3.20;;;2.87;;
20449;SDS011;10384;51.940;8.432;2023-06-19T12:29:52;3.27;;;2.70;;
20449;SDS011;10384;51.940;8.432;2023-06-19T12:32:19;3.97;;;2.90;;
20449;SDS011;10384;51.940;8.432;2023-06-19T12:34:46;3.63;;;2.90;;
20449;SDS011;10384;51.940;8.432;2023-06-19T12:37:14;6.33;;;2.80;;
20449;SDS011;10384;51.940;8.432;2023-06-19T12:39:40;2.93;;;2.60;;
20449;SDS011;10384;51.940;8.432;2023-06-19T12:42:07;2.93;;;2.63;;
20449;SDS011;10384;51.940;8.432;2023-06-19T12:44:32;3.93;;;3.07;;
20449;SDS011;10384;51.940;8.432;2023-06-19T12:46:58;4.77;;;3.10;;
20449;SDS011;10384;51.940;8.432;2023-06-19T12:49:25;4.17;;;3.53;;
20449;SDS011;10384;51.940;8.432;2023-06-19T12:51:51;3.83;;;3.27;;
20449;SDS011;10384;51.940;8.432;2023-06-19T12:54:18;4.70;;;3.30;;
20449;SDS011;10384;51.940;8.432;2023-06-19T12:56:44;3.40;;;3.10;;
20449;SDS011;10384;51.940;8.432;2023-06-19T12:59:10;3.60;;;3.30;;
20449;SDS011;10384;51.940;8.432;2023-06-19T13:01:36;3.60;;;3.30;;
20449;SDS011;10384;51.940;8.432;2023-06-19T13:04:02;3.47;;;3.17;;
20449;SDS011;10384;51.940;8.432;2023-06-19T13:06:28;4.70;;;3.33;;
20449;SDS011;10384;51.940;8.432;2023-06-19T13:08:54;4.23;;;2.90;;
20449;SDS011;10384;51.940;8.432;2023-06-19T13:11:20;3.57;;;3.10;;
20449;SDS011;10384;51.940;8.432;2023-06-19T13:13:46;5.13;;;3.13;;
20449;SDS011;10384;51.940;8.432;2023-06-19T13:16:12;3.30;;;2.97;;
20449;SDS011;10384;51.940;8.432;2023-06-19T13:18:38;5.37;;;3.27;;
20449;SDS011;10384;51.940;8.432;2023-06-19T13:21:04;3.50;;;3.13;;
20449;SDS011;10384;51.940;8.432;2023-06-19T13:23:30;4.33;;;3.10;;
20449;SDS011;10384;51.940;8.432;2023-06-19T13:25:56;3.47;;;3.17;;
20449;SDS011;10384;51.940;8.432;2023-06-19T13:28:22;3.53;;;3.07;;
20449;SDS011;10384;51.940;8.432;2023-06-19T13:30:49;4.03;;;3.40;;
20449;SDS011;10384;51.940;8.432;2023-06-19T13:33:15;4.00;;;3.60;;
20449;SDS011;10384;51.940;8.432;2023-06-19T13:35:41;4.30;;;3.47;;
20449;SDS011;10384;51.940;8.432;2023-06-19T13:38:07;4.73;;;3.80;;
20449;SDS011;10384;51.940;8.432;2023-06-19T13:40:34;4.50;;;4.10;;
20449;SDS011;10384;51.940;8.432;2023-06-19T13:43:00;5.47;;;4.47;;
20449;SDS011;10384;51.940;8.432;2023-06-19T13:45:28;5.27;;;4.13;;
20449;SDS011;10384;51.940;8.432;2023-06-19T13:47:55;5.67;;;4.27;;
20449;SDS011;10384;51.940;8.432;2023-06-19T13:50:22;4.90;;;4.50;;
20449;SDS011;10384;51.940;8.432;2023-06-19T13:52:48;5.53;;;4.70;;
20449;SDS011;10384;51.940;8.432;2023-06-19T13:55:14;5.40;;;4.90;;
20449;SDS011;10384;51.940;8.432;2023-06-19T13:57:41;6.03;;;4.57;;
20449;SDS011;10384;51.940;8.432;2023-06-19T14:00:07;5.37;;;4.73;;
20449;SDS011;10384;51.940;8.432;2023-06-19T14:02:35;5.30;;;4.80;;
20449;SDS011;10384;51.940;8.432;2023-06-19T14:05:01;6.87;;;5.17;;
20449;SDS011;10384;51.940;8.432;2023-06-19T14:07:27;5.57;;;4.90;;
20449;SDS011;10384;51.940;8.432;2023-06-19T14:09:53;5.77;;;5.17;;
20449;SDS011;10384;51.940;8.432;2023-06-19T14:12:19;5.30;;;4.50;;
20449;SDS011;10384;51.940;8.432;2023-06-19T14:14:46;5.80;;;5.00;;
20449;SDS011;10384;51.940;8.432;2023-06-19T14:17:13;5.63;;;4.93;;
20449;SDS011;10384;51.940;8.432;2023-06-19T14:19:39;6.07;;;4.67;;
20449;SDS011;10384;51.940;8.432;2023-06-19T14:22:05;6.93;;;5.10;;
20449;SDS011;10384;51.940;8.432;2023-06-19T14:24:31;7.63;;;5.10;;
20449;SDS011;10384;51.940;8.432;2023-06-19T14:26:57;6.13;;;5.53;;
20449;SDS011;10384;51.940;8.432;2023-06-19T14:29:23;5.93;;;5.33;;
20449;SDS011;10384;51.940;8.432;2023-06-19T14:31:52;5.63;;;5.10;;
20449;SDS011;10384;51.940;8.432;2023-06-19T14:34:19;6.33;;;5.20;;
20449;SDS011;10384;51.940;8.432;2023-06-19T14:36:45;6.00;;;5.40;;
20449;SDS011;10384;51.940;8.432;2023-06-19T14:39:11;7.80;;;5.23;;
20449;SDS011;10384;51.940;8.432;2023-06-19T14:41:38;8.27;;;5.57;;
20449;SDS011;10384;51.940;8.432;2023-06-19T14:44:04;6.00;;;5.33;;
20449;SDS011;10384;51.940;8.432;2023-06-19T14:46:31;6.83;;;6.13;;
20449;SDS011;10384;51.940;8.432;2023-06-19T14:48:57;6.03;;;5.43;;
20449;SDS011;10384;51.940;8.432;2023-06-19T14:51:25;9.27;;;6.07;;
20449;SDS011;10384;51.940;8.432;2023-06-19T14:53:51;6.00;;;5.40;;
20449;SDS011;10384;51.940;8.432;2023-06-19T14:56:17;6.43;;;5.60;;
20449;SDS011;10384;51.940;8.432;2023-06-19T14:58:43;5.50;;;4.90;;
20449;SDS011;10384;51.940;8.432;2023-06-19T15:01:09;6.20;;;5.60;;
20449;SDS011;10384;51.940;8.432;2023-06-19T15:03:36;5.87;;;5.20;;